sensor_id;sensor_type;location;lat;lon;timestamp;P1;durP1;ratioP1;P2;durP2;ratioP2
9657;SDS011;4867;48.112;11.622;2023-03-29T00:00:02;3.07;;;1.90;;
9657;SDS011;4867;48.112;11.622;2023-03-29T00:02:37;2.77;;;2.30;;
9657;SDS011;4867;48.112;11.622;2023-03-29T00:05:05;2.87;;;2.40;;
9657;SDS011;4867;48.112;11.622;2023-03-29T00:07:33;3.40;;;2.40;;
9657;SDS011;4867;48.112;11.622;2023-03-29T00:10:02;2.50;;;2.10;;
9657;SDS011;4867;48.112;11.622;2023-03-29T00:12:30;2.27;;;2.07;;
9657;SDS011;4867;48.112;11.622;2023-03-29T00:14:58;3.27;;;2.10;;
9657;SDS011;4867;48.112;11.622;2023-03-29T00:17:26;2.57;;;2.37;;
9657;SDS011;4867;48.112;11.622;2023-03-29T00:19:53;2.40;;;2.07;;
9657;SDS011;4867;48.112;11.622;2023-03-29T00:22:21;2.40;;;2.20;;
9657;SDS011;4867;48.112;11.622;2023-03-29T00:24:50;3.90;;;2.17;;
9657;SDS011;4867;48.112;11.622;2023-03-29T00:27:20;3.23;;;1.87;;
9657;SDS011;4867;48.112;11.622;2023-03-29T00:29:47;2.40;;;2.00;;
9657;SDS011;4867;48.112;11.622;2023-03-29T00:32:15;2.60;;;2.10;;
9657;SDS011;4867;48.112;11.622;2023-03-29T00:34:42;1.70;;;1.57;;
9657;SDS011;4867;48.112;11.622;2023-03-29T00:37:11;1.83;;;1.60;;
9657;SDS011;4867;48.112;11.622;2023-03-29T00:39:40;1.50;;;1.40;;
9657;SDS011;4867;48.112;11.622;2023-03-29T00:42:11;2.17;;;1.53;;
9657;SDS011;4867;48.112;11.622;2023-03-29T00:50:42;1.37;;;1.20;;
9657;SDS011;4867;48.112;11.622;2023-03-29T00:53:23;1.90;;;1.70;;
9657;SDS011;4867;48.112;11.622;2023-03-29T00:58:34;3.73;;;1.60;;
9657;SDS011;4867;48.112;11.622;2023-03-29T01:01:19;2.10;;;1.60;;
9657;SDS011;4867;48.112;11.622;2023-03-29T01:04:21;1.87;;;1.50;;
9657;SDS011;4867;48.112;11.622;2023-03-29T01:07:12;2.00;;;1.60;;
9657;SDS011;4867;48.112;11.622;2023-03-29T01:09:49;2.17;;;1.90;;
9657;SDS011;4867;48.112;11.622;2023-03-29T01:12:21;2.03;;;1.90;;
9657;SDS011;4867;48.112;11.622;2023-03-29T01:14:58;2.07;;;1.80;;
9657;SDS011;4867;48.112;11.622;2023-03-29T01:17:31;2.17;;;1.97;;
9657;SDS011;4867;48.112;11.622;2023-03-29T01:20:03;4.37;;;1.90;;
9657;SDS011;4867;48.112;11.622;2023-03-29T01:22:59;1.80;;;1.70;;
9657;SDS011;4867;48.112;11.622;2023-03-29T01:28:01;3.53;;;2.10;;
9657;SDS011;4867;48.112;11.622;2023-03-29T01:30:36;2.00;;;1.80;;
9657;SDS011;4867;48.112;11.622;2023-03-29T01:33:11;2.53;;;2.20;;
9657;SDS011;4867;48.112;11.622;2023-03-29T01:35:55;2.87;;;2.00;;
9657;SDS011;4867;48.112;11.622;2023-03-29T01:41:10;4.87;;;1.90;;
9657;SDS011;4867;48.112;11.622;2023-03-29T01:43:43;1.80;;;1.70;;
9657;SDS011;4867;48.112;11.622;2023-03-29T01:46:20;2.67;;;1.90;;
9657;SDS011;4867;48.112;11.622;2023-03-29T01:48:53;2.33;;;1.83;;
9657;SDS011;4867;48.112;11.622;2023-03-29T01:51:50;1.67;;;1.57;;
9657;SDS011;4867;48.112;11.622;2023-03-29T01:54:35;2.97;;;2.00;;
9657;SDS011;4867;48.112;11.622;2023-03-29T01:57:06;2.97;;;1.80;;
9657;SDS011;4867;48.112;11.622;2023-03-29T01:59:37;2.77;;;2.20;;
9657;SDS011;4867;48.112;11.622;2023-03-29T02:02:08;1.60;;;1.50;;
9657;SDS011;4867;48.112;11.622;2023-03-29T02:04:42;2.63;;;1.77;;
9657;SDS011;4867;48.112;11.622;2023-03-29T02:07:17;2.13;;;1.70;;
9657;SDS011;4867;48.112;11.622;2023-03-29T02:09:49;1.93;;;1.70;;
9657;SDS011;4867;48.112;11.622;2023-03-29T02:12:19;2.57;;;2.00;;
9657;SDS011;4867;48.112;11.622;2023-03-29T02:14:47;2.63;;;1.60;;
9657;SDS011;4867;48.112;11.622;2023-03-29T02:17:19;2.10;;;1.40;;
9657;SDS011;4867;48.112;11.622;2023-03-29T02:19:51;1.80;;;1.60;;
9657;SDS011;4867;48.112;11.622;2023-03-29T02:22:29;1.87;;;1.70;;
9657;SDS011;4867;48.112;11.622;2023-03-29T02:25:03;3.83;;;1.60;;
9657;SDS011;4867;48.112;11.622;2023-03-29T02:27:36;1.53;;;1.43;;
9657;SDS011;4867;48.112;11.622;2023-03-29T02:30:04;1.70;;;1.60;;
9657;SDS011;4867;48.112;11.622;2023-03-29T02:32:38;1.40;;;1.30;;
9657;SDS011;4867;48.112;11.622;2023-03-29T02:35:10;1.40;;;1.30;;
9657;SDS011;4867;48.112;11.622;2023-03-29T02:37:41;1.70;;;1.60;;
9657;SDS011;4867;48.112;11.622;2023-03-29T02:40:12;1.67;;;1.57;;
9657;SDS011;4867;48.112;11.622;2023-03-29T02:42:41;1.97;;;1.77;;
9657;SDS011;4867;48.112;11.622;2023-03-29T02:45:11;1.80;;;1.60;;
9657;SDS011;4867;48.112;11.622;2023-03-29T02:47:52;1.70;;;1.40;;
9657;SDS011;4867;48.112;11.622;2023-03-29T02:50:23;4.73;;;1.60;;
9657;SDS011;4867;48.112;11.622;2023-03-29T02:52:56;1.60;;;1.50;;
9657;SDS011;4867;48.112;11.622;2023-03-29T02:55:26;2.17;;;1.67;;
9657;SDS011;4867;48.112;11.622;2023-03-29T02:58:00;3.20;;;1.90;;
9657;SDS011;4867;48.112;11.622;2023-03-29T03:00:37;1.53;;;1.43;;
9657;SDS011;4867;48.112;11.622;2023-03-29T03:03:09;2.20;;;1.83;;
9657;SDS011;4867;48.112;11.622;2023-03-29T03:05:37;1.70;;;1.60;;
9657;SDS011;4867;48.112;11.622;2023-03-29T03:08:06;2.33;;;1.60;;
9657;SDS011;4867;48.112;11.622;2023-03-29T03:10:34;2.50;;;1.83;;
9657;SDS011;4867;48.112;11.622;2023-03-29T03:13:03;3.10;;;1.73;;
9657;SDS011;4867;48.112;11.622;2023-03-29T03:15:31;2.53;;;1.60;;
9657;SDS011;4867;48.112;11.622;2023-03-29T03:18:02;3.33;;;1.70;;
9657;SDS011;4867;48.112;11.622;2023-03-29T03:20:31;2.00;;;1.80;;
9657;SDS011;4867;48.112;11.622;2023-03-29T03:22:59;2.77;;;1.83;;
9657;SDS011;4867;48.112;11.622;2023-03-29T03:25:29;2.20;;;2.00;;
9657;SDS011;4867;48.112;11.622;2023-03-29T03:27:57;2.00;;;1.70;;
9657;SDS011;4867;48.112;11.622;2023-03-29T03:30:24;2.67;;;2.23;;
9657;SDS011;4867;48.112;11.622;2023-03-29T03:33:11;3.10;;;1.80;;
9657;SDS011;4867;48.112;11.622;2023-03-29T03:35:57;2.27;;;1.60;;
9657;SDS011;4867;48.112;11.622;2023-03-29T03:38:28;1.90;;;1.60;;
9657;SDS011;4867;48.112;11.622;2023-03-29T03:40:58;1.93;;;1.73;;
9657;SDS011;4867;48.112;11.622;2023-03-29T03:43:31;1.80;;;1.60;;
9657;SDS011;4867;48.112;11.622;2023-03-29T03:46:01;3.13;;;1.70;;
9657;SDS011;4867;48.112;11.622;2023-03-29T03:48:29;1.73;;;1.63;;
9657;SDS011;4867;48.112;11.622;2023-03-29T03:51:06;3.93;;;1.60;;
9657;SDS011;4867;48.112;11.622;2023-03-29T03:53:35;4.53;;;1.93;;
9657;SDS011;4867;48.112;11.622;2023-03-29T03:56:12;1.77;;;1.53;;
9657;SDS011;4867;48.112;11.622;2023-03-29T03:59:05;3.10;;;1.67;;
9657;SDS011;4867;48.112;11.622;2023-03-29T04:01:57;5.40;;;1.80;;
9657;SDS011;4867;48.112;11.622;2023-03-29T04:04:26;2.33;;;1.60;;
9657;SDS011;4867;48.112;11.622;2023-03-29T04:07:01;2.47;;;1.70;;
9657;SDS011;4867;48.112;11.622;2023-03-29T04:09:57;1.70;;;1.60;;
9657;SDS011;4867;48.112;11.622;2023-03-29T04:12:43;3.33;;;1.60;;
9657;SDS011;4867;48.112;11.622;2023-03-29T04:15:10;4.03;;;1.70;;
9657;SDS011;4867;48.112;11.622;2023-03-29T04:17:44;1.70;;;1.60;;
9657;SDS011;4867;48.112;11.622;2023-03-29T04:20:23;1.93;;;1.70;;
9657;SDS011;4867;48.112;11.622;2023-03-29T04:22:50;1.83;;;1.73;;
9657;SDS011;4867;48.112;11.622;2023-03-29T04:25:19;2.00;;;1.43;;
9657;SDS011;4867;48.112;11.622;2023-03-29T04:28:08;2.00;;;1.60;;
9657;SDS011;4867;48.112;11.622;2023-03-29T04:30:46;1.97;;;1.60;;
9657;SDS011;4867;48.112;11.622;2023-03-29T04:33:20;1.90;;;1.77;;
9657;SDS011;4867;48.112;11.622;2023-03-29T04:35:56;1.90;;;1.50;;
9657;SDS011;4867;48.112;11.622;2023-03-29T04:38:24;2.50;;;1.83;;
9657;SDS011;4867;48.112;11.622;2023-03-29T04:40:54;2.33;;;1.70;;
9657;SDS011;4867;48.112;11.622;2023-03-29T04:44:00;1.90;;;1.70;;
9657;SDS011;4867;48.112;11.622;2023-03-29T04:46:30;2.80;;;1.50;;
9657;SDS011;4867;48.112;11.622;2023-03-29T04:48:58;2.07;;;1.57;;
9657;SDS011;4867;48.112;11.622;2023-03-29T04:51:33;2.00;;;1.77;;
9657;SDS011;4867;48.112;11.622;2023-03-29T04:54:01;3.93;;;1.67;;
9657;SDS011;4867;48.112;11.622;2023-03-29T04:56:30;1.53;;;1.33;;
9657;SDS011;4867;48.112;11.622;2023-03-29T04:59:32;1.93;;;1.33;;
9657;SDS011;4867;48.112;11.622;2023-03-29T05:02:09;1.93;;;1.43;;
9657;SDS011;4867;48.112;11.622;2023-03-29T05:04:40;3.30;;;2.20;;
9657;SDS011;4867;48.112;11.622;2023-03-29T05:07:13;3.63;;;3.27;;
9657;SDS011;4867;48.112;11.622;2023-03-29T05:09:41;5.20;;;4.70;;
9657;SDS011;4867;48.112;11.622;2023-03-29T05:12:10;5.00;;;4.50;;
9657;SDS011;4867;48.112;11.622;2023-03-29T05:14:47;4.33;;;3.93;;
9657;SDS011;4867;48.112;11.622;2023-03-29T05:17:15;9.43;;;8.53;;
9657;SDS011;4867;48.112;11.622;2023-03-29T05:19:44;4.70;;;4.20;;
9657;SDS011;4867;48.112;11.622;2023-03-29T05:22:12;5.50;;;4.90;;
9657;SDS011;4867;48.112;11.622;2023-03-29T05:24:39;7.43;;;6.67;;
9657;SDS011;4867;48.112;11.622;2023-03-29T05:27:15;6.03;;;2.90;;
9657;SDS011;4867;48.112;11.622;2023-03-29T05:29:50;2.93;;;2.53;;
9657;SDS011;4867;48.112;11.622;2023-03-29T05:32:26;4.67;;;4.13;;
9657;SDS011;4867;48.112;11.622;2023-03-29T05:34:54;10.13;;;8.00;;
9657;SDS011;4867;48.112;11.622;2023-03-29T05:37:21;10.33;;;7.80;;
9657;SDS011;4867;48.112;11.622;2023-03-29T05:39:56;7.33;;;4.20;;
9657;SDS011;4867;48.112;11.622;2023-03-29T05:42:35;14.70;;;10.47;;
9657;SDS011;4867;48.112;11.622;2023-03-29T05:45:07;15.30;;;10.67;;
9657;SDS011;4867;48.112;11.622;2023-03-29T05:47:34;4.27;;;3.10;;
9657;SDS011;4867;48.112;11.622;2023-03-29T05:50:03;26.13;;;18.40;;
9657;SDS011;4867;48.112;11.622;2023-03-29T05:52:31;28.20;;;19.40;;
9657;SDS011;4867;48.112;11.622;2023-03-29T05:54:59;43.17;;;30.30;;
9657;SDS011;4867;48.112;11.622;2023-03-29T05:57:26;50.63;;;34.17;;
9657;SDS011;4867;48.112;11.622;2023-03-29T05:59:54;20.20;;;14.37;;
9657;SDS011;4867;48.112;11.622;2023-03-29T06:02:23;9.07;;;6.50;;
9657;SDS011;4867;48.112;11.622;2023-03-29T06:04:52;16.77;;;11.83;;
9657;SDS011;4867;48.112;11.622;2023-03-29T06:07:21;26.07;;;18.07;;
9657;SDS011;4867;48.112;11.622;2023-03-29T06:10:25;4.00;;;3.00;;
9657;SDS011;4867;48.112;11.622;2023-03-29T06:13:04;6.83;;;5.17;;
9657;SDS011;4867;48.112;11.622;2023-03-29T06:15:33;10.10;;;9.10;;
9657;SDS011;4867;48.112;11.622;2023-03-29T06:18:04;12.93;;;11.73;;
9657;SDS011;4867;48.112;11.622;2023-03-29T06:20:33;5.17;;;3.77;;
9657;SDS011;4867;48.112;11.622;2023-03-29T06:23:06;1.93;;;1.40;;
9657;SDS011;4867;48.112;11.622;2023-03-29T06:25:34;2.47;;;1.20;;
9657;SDS011;4867;48.112;11.622;2023-03-29T06:28:02;3.00;;;1.70;;
9657;SDS011;4867;48.112;11.622;2023-03-29T06:30:29;5.20;;;2.13;;
9657;SDS011;4867;48.112;11.622;2023-03-29T06:32:59;12.87;;;11.60;;
9657;SDS011;4867;48.112;11.622;2023-03-29T06:35:46;4.77;;;4.37;;
9657;SDS011;4867;48.112;11.622;2023-03-29T06:38:17;4.33;;;3.73;;
9657;SDS011;4867;48.112;11.622;2023-03-29T06:41:04;5.33;;;4.83;;
9657;SDS011;4867;48.112;11.622;2023-03-29T06:44:02;3.93;;;1.73;;
9657;SDS011;4867;48.112;11.622;2023-03-29T06:46:34;2.83;;;2.23;;
9657;SDS011;4867;48.112;11.622;2023-03-29T06:49:06;5.10;;;4.70;;
9657;SDS011;4867;48.112;11.622;2023-03-29T06:51:43;3.37;;;3.07;;
9657;SDS011;4867;48.112;11.622;2023-03-29T06:54:11;3.60;;;3.30;;
9657;SDS011;4867;48.112;11.622;2023-03-29T06:56:47;3.37;;;3.07;;
9657;SDS011;4867;48.112;11.622;2023-03-29T06:59:16;3.07;;;2.50;;
9657;SDS011;4867;48.112;11.622;2023-03-29T07:02:10;3.90;;;2.23;;
9657;SDS011;4867;48.112;11.622;2023-03-29T07:04:49;2.37;;;1.40;;
9657;SDS011;4867;48.112;11.622;2023-03-29T07:07:24;3.03;;;1.57;;
9657;SDS011;4867;48.112;11.622;2023-03-29T07:10:10;2.00;;;1.80;;
9657;SDS011;4867;48.112;11.622;2023-03-29T07:13:05;3.17;;;1.60;;
9657;SDS011;4867;48.112;11.622;2023-03-29T07:15:34;2.43;;;1.80;;
9657;SDS011;4867;48.112;11.622;2023-03-29T07:18:20;9.47;;;6.57;;
9657;SDS011;4867;48.112;11.622;2023-03-29T07:20:48;5.40;;;3.60;;
9657;SDS011;4867;48.112;11.622;2023-03-29T07:23:15;4.97;;;3.50;;
9657;SDS011;4867;48.112;11.622;2023-03-29T07:25:44;3.57;;;1.80;;
9657;SDS011;4867;48.112;11.622;2023-03-29T07:28:12;3.83;;;3.50;;
9657;SDS011;4867;48.112;11.622;2023-03-29T07:30:40;3.33;;;2.27;;
9657;SDS011;4867;48.112;11.622;2023-03-29T07:33:14;4.03;;;1.80;;
9657;SDS011;4867;48.112;11.622;2023-03-29T07:35:47;3.87;;;1.77;;
9657;SDS011;4867;48.112;11.622;2023-03-29T07:38:15;2.73;;;1.50;;
9657;SDS011;4867;48.112;11.622;2023-03-29T07:40:47;3.43;;;1.67;;
9657;SDS011;4867;48.112;11.622;2023-03-29T07:43:33;2.93;;;2.23;;
9657;SDS011;4867;48.112;11.622;2023-03-29T07:46:02;3.47;;;1.53;;
9657;SDS011;4867;48.112;11.622;2023-03-29T07:48:32;3.03;;;1.90;;
9657;SDS011;4867;48.112;11.622;2023-03-29T07:51:05;3.40;;;2.73;;
9657;SDS011;4867;48.112;11.622;2023-03-29T07:53:41;5.10;;;1.50;;
9657;SDS011;4867;48.112;11.622;2023-03-29T07:56:29;3.20;;;1.80;;
9657;SDS011;4867;48.112;11.622;2023-03-29T07:59:16;2.43;;;1.50;;
9657;SDS011;4867;48.112;11.622;2023-03-29T08:01:49;2.37;;;1.40;;
9657;SDS011;4867;48.112;11.622;2023-03-29T08:04:28;2.73;;;1.40;;
9657;SDS011;4867;48.112;11.622;2023-03-29T08:07:21;2.23;;;1.30;;
9657;SDS011;4867;48.112;11.622;2023-03-29T08:09:58;1.97;;;1.60;;
9657;SDS011;4867;48.112;11.622;2023-03-29T08:12:41;5.03;;;1.40;;
9657;SDS011;4867;48.112;11.622;2023-03-29T08:15:09;5.00;;;2.50;;
9657;SDS011;4867;48.112;11.622;2023-03-29T08:17:36;3.47;;;1.30;;
9657;SDS011;4867;48.112;11.622;2023-03-29T08:20:05;4.60;;;1.60;;
9657;SDS011;4867;48.112;11.622;2023-03-29T08:22:37;4.63;;;1.50;;
9657;SDS011;4867;48.112;11.622;2023-03-29T08:25:20;3.63;;;1.60;;
9657;SDS011;4867;48.112;11.622;2023-03-29T08:27:50;3.33;;;1.70;;
9657;SDS011;4867;48.112;11.622;2023-03-29T08:30:36;2.90;;;1.63;;
9657;SDS011;4867;48.112;11.622;2023-03-29T08:33:04;3.30;;;1.40;;
9657;SDS011;4867;48.112;11.622;2023-03-29T08:35:32;2.97;;;1.47;;
9657;SDS011;4867;48.112;11.622;2023-03-29T08:38:11;4.47;;;1.80;;
9657;SDS011;4867;48.112;11.622;2023-03-29T08:40:38;3.47;;;1.80;;
9657;SDS011;4867;48.112;11.622;2023-03-29T08:43:20;2.90;;;1.67;;
9657;SDS011;4867;48.112;11.622;2023-03-29T08:46:27;5.07;;;3.67;;
9657;SDS011;4867;48.112;11.622;2023-03-29T08:49:14;4.53;;;4.00;;
9657;SDS011;4867;48.112;11.622;2023-03-29T08:51:45;2.23;;;1.63;;
9657;SDS011;4867;48.112;11.622;2023-03-29T08:54:23;4.57;;;1.60;;
9657;SDS011;4867;48.112;11.622;2023-03-29T08:57:14;2.27;;;1.70;;
9657;SDS011;4867;48.112;11.622;2023-03-29T08:59:52;2.67;;;1.43;;
9657;SDS011;4867;48.112;11.622;2023-03-29T09:02:23;4.70;;;2.63;;
9657;SDS011;4867;48.112;11.622;2023-03-29T09:05:12;3.20;;;1.30;;
9657;SDS011;4867;48.112;11.622;2023-03-29T09:07:55;4.67;;;2.93;;
9657;SDS011;4867;48.112;11.622;2023-03-29T09:10:26;5.47;;;4.23;;
9657;SDS011;4867;48.112;11.622;2023-03-29T09:15:51;4.87;;;2.90;;
9657;SDS011;4867;48.112;11.622;2023-03-29T09:18:38;3.73;;;1.90;;
9657;SDS011;4867;48.112;11.622;2023-03-29T09:21:25;4.07;;;3.67;;
9657;SDS011;4867;48.112;11.622;2023-03-29T09:27:48;3.20;;;2.03;;
9657;SDS011;4867;48.112;11.622;2023-03-29T09:33:42;3.53;;;2.30;;
9657;SDS011;4867;48.112;11.622;2023-03-29T09:36:07;5.17;;;4.27;;
9657;SDS011;4867;48.112;11.622;2023-03-29T09:39:04;3.73;;;2.67;;
9657;SDS011;4867;48.112;11.622;2023-03-29T09:44:21;2.90;;;1.67;;
9657;SDS011;4867;48.112;11.622;2023-03-29T09:49:53;2.10;;;1.90;;
9657;SDS011;4867;48.112;11.622;2023-03-29T09:52:24;2.63;;;1.43;;
9657;SDS011;4867;48.112;11.622;2023-03-29T09:55:02;2.53;;;2.20;;
9657;SDS011;4867;48.112;11.622;2023-03-29T09:57:51;4.30;;;2.00;;
9657;SDS011;4867;48.112;11.622;2023-03-29T10:00:19;1.50;;;1.40;;
9657;SDS011;4867;48.112;11.622;2023-03-29T10:02:53;2.93;;;1.60;;
9657;SDS011;4867;48.112;11.622;2023-03-29T10:05:34;3.20;;;1.50;;
9657;SDS011;4867;48.112;11.622;2023-03-29T10:08:13;4.23;;;1.90;;
9657;SDS011;4867;48.112;11.622;2023-03-29T10:10:49;3.03;;;1.70;;
9657;SDS011;4867;48.112;11.622;2023-03-29T10:13:19;2.50;;;1.40;;
9657;SDS011;4867;48.112;11.622;2023-03-29T10:16:05;2.83;;;1.60;;
9657;SDS011;4867;48.112;11.622;2023-03-29T10:18:39;8.07;;;5.00;;
9657;SDS011;4867;48.112;11.622;2023-03-29T10:21:10;4.33;;;2.73;;
9657;SDS011;4867;48.112;11.622;2023-03-29T10:23:41;3.03;;;1.40;;
9657;SDS011;4867;48.112;11.622;2023-03-29T10:26:12;3.40;;;1.50;;
9657;SDS011;4867;48.112;11.622;2023-03-29T10:29:02;1.60;;;1.20;;
9657;SDS011;4867;48.112;11.622;2023-03-29T10:31:32;3.60;;;1.50;;
9657;SDS011;4867;48.112;11.622;2023-03-29T10:34:04;3.07;;;1.70;;
9657;SDS011;4867;48.112;11.622;2023-03-29T10:36:32;3.73;;;1.70;;
9657;SDS011;4867;48.112;11.622;2023-03-29T10:39:00;3.07;;;1.63;;
9657;SDS011;4867;48.112;11.622;2023-03-29T10:41:32;4.47;;;3.97;;
9657;SDS011;4867;48.112;11.622;2023-03-29T10:44:00;6.83;;;5.33;;
9657;SDS011;4867;48.112;11.622;2023-03-29T10:46:41;8.20;;;7.30;;
9657;SDS011;4867;48.112;11.622;2023-03-29T10:49:19;5.40;;;4.87;;
9657;SDS011;4867;48.112;11.622;2023-03-29T10:51:48;6.50;;;2.30;;
9657;SDS011;4867;48.112;11.622;2023-03-29T10:54:17;4.23;;;3.63;;
9657;SDS011;4867;48.112;11.622;2023-03-29T10:56:54;3.77;;;2.00;;
9657;SDS011;4867;48.112;11.622;2023-03-29T10:59:31;7.43;;;5.97;;
9657;SDS011;4867;48.112;11.622;2023-03-29T11:04:46;5.23;;;2.40;;
9657;SDS011;4867;48.112;11.622;2023-03-29T11:13:20;4.27;;;3.40;;
9657;SDS011;4867;48.112;11.622;2023-03-29T11:21:35;5.10;;;3.43;;
9657;SDS011;4867;48.112;11.622;2023-03-29T11:24:24;3.20;;;1.70;;
9657;SDS011;4867;48.112;11.622;2023-03-29T11:27:32;3.73;;;1.50;;
9657;SDS011;4867;48.112;11.622;2023-03-29T11:30:10;2.00;;;1.23;;
9657;SDS011;4867;48.112;11.622;2023-03-29T11:32:58;3.20;;;1.60;;
9657;SDS011;4867;48.112;11.622;2023-03-29T11:41:24;2.17;;;1.50;;
9657;SDS011;4867;48.112;11.622;2023-03-29T11:44:03;2.93;;;1.60;;
9657;SDS011;4867;48.112;11.622;2023-03-29T11:46:53;4.67;;;2.60;;
9657;SDS011;4867;48.112;11.622;2023-03-29T11:49:30;5.10;;;2.33;;
9657;SDS011;4867;48.112;11.622;2023-03-29T11:54:51;2.90;;;1.80;;
9657;SDS011;4867;48.112;11.622;2023-03-29T12:00:24;3.63;;;1.83;;
9657;SDS011;4867;48.112;11.622;2023-03-29T12:03:02;4.27;;;1.70;;
9657;SDS011;4867;48.112;11.622;2023-03-29T12:05:49;3.23;;;1.50;;
9657;SDS011;4867;48.112;11.622;2023-03-29T12:08:34;2.47;;;1.60;;
9657;SDS011;4867;48.112;11.622;2023-03-29T12:14:15;4.93;;;2.20;;
9657;SDS011;4867;48.112;11.622;2023-03-29T12:17:01;3.90;;;1.90;;
9657;SDS011;4867;48.112;11.622;2023-03-29T12:19:40;3.93;;;1.93;;
9657;SDS011;4867;48.112;11.622;2023-03-29T12:22:15;2.47;;;1.63;;
9657;SDS011;4867;48.112;11.622;2023-03-29T12:24:44;3.47;;;1.50;;
9657;SDS011;4867;48.112;11.622;2023-03-29T12:27:26;3.30;;;1.60;;
9657;SDS011;4867;48.112;11.622;2023-03-29T12:38:35;2.27;;;1.40;;
9657;SDS011;4867;48.112;11.622;2023-03-29T12:41:35;3.03;;;1.60;;
9657;SDS011;4867;48.112;11.622;2023-03-29T12:44:30;2.33;;;1.50;;
9657;SDS011;4867;48.112;11.622;2023-03-29T12:47:22;13.90;;;2.23;;
9657;SDS011;4867;48.112;11.622;2023-03-29T12:49:56;3.70;;;1.97;;
9657;SDS011;4867;48.112;11.622;2023-03-29T12:52:34;2.90;;;1.50;;
9657;SDS011;4867;48.112;11.622;2023-03-29T12:55:03;3.53;;;1.67;;
9657;SDS011;4867;48.112;11.622;2023-03-29T13:03:19;3.63;;;1.50;;
9657;SDS011;4867;48.112;11.622;2023-03-29T13:06:00;3.10;;;1.70;;
9657;SDS011;4867;48.112;11.622;2023-03-29T13:11:03;3.13;;;1.63;;
9657;SDS011;4867;48.112;11.622;2023-03-29T13:13:32;3.93;;;1.73;;
9657;SDS011;4867;48.112;11.622;2023-03-29T13:16:15;2.90;;;1.67;;
9657;SDS011;4867;48.112;11.622;2023-03-29T13:18:49;2.23;;;1.60;;
9657;SDS011;4867;48.112;11.622;2023-03-29T13:21:21;3.10;;;1.77;;
9657;SDS011;4867;48.112;11.622;2023-03-29T13:26:52;3.03;;;1.57;;
9657;SDS011;4867;48.112;11.622;2023-03-29T13:39:55;3.83;;;1.60;;
9657;SDS011;4867;48.112;11.622;2023-03-29T13:45:21;7.37;;;2.13;;
9657;SDS011;4867;48.112;11.622;2023-03-29T13:48:02;1.90;;;1.50;;
9657;SDS011;4867;48.112;11.622;2023-03-29T13:50:51;2.70;;;1.80;;
9657;SDS011;4867;48.112;11.622;2023-03-29T13:53:35;2.03;;;1.53;;
9657;SDS011;4867;48.112;11.622;2023-03-29T13:56:07;4.80;;;1.80;;
9657;SDS011;4867;48.112;11.622;2023-03-29T13:58:45;3.40;;;1.50;;
9657;SDS011;4867;48.112;11.622;2023-03-29T14:01:38;3.53;;;1.40;;
9657;SDS011;4867;48.112;11.622;2023-03-29T14:04:15;3.53;;;1.50;;
9657;SDS011;4867;48.112;11.622;2023-03-29T14:06:50;3.77;;;1.30;;
9657;SDS011;4867;48.112;11.622;2023-03-29T14:09:25;6.10;;;1.40;;
9657;SDS011;4867;48.112;11.622;2023-03-29T14:11:57;2.33;;;1.63;;
9657;SDS011;4867;48.112;11.622;2023-03-29T14:14:26;4.57;;;2.00;;
9657;SDS011;4867;48.112;11.622;2023-03-29T14:16:55;3.93;;;2.00;;
9657;SDS011;4867;48.112;11.622;2023-03-29T14:19:28;6.97;;;2.00;;
9657;SDS011;4867;48.112;11.622;2023-03-29T14:22:01;6.60;;;1.67;;
9657;SDS011;4867;48.112;11.622;2023-03-29T14:24:43;4.40;;;1.70;;
9657;SDS011;4867;48.112;11.622;2023-03-29T14:27:17;3.77;;;1.60;;
9657;SDS011;4867;48.112;11.622;2023-03-29T14:29:46;6.43;;;1.70;;
9657;SDS011;4867;48.112;11.622;2023-03-29T14:32:16;4.27;;;1.70;;
9657;SDS011;4867;48.112;11.622;2023-03-29T14:34:46;4.80;;;1.87;;
9657;SDS011;4867;48.112;11.622;2023-03-29T14:37:21;4.87;;;1.70;;
9657;SDS011;4867;48.112;11.622;2023-03-29T14:39:53;4.87;;;1.70;;
9657;SDS011;4867;48.112;11.622;2023-03-29T14:42:25;5.73;;;2.00;;
9657;SDS011;4867;48.112;11.622;2023-03-29T14:44:57;3.57;;;1.70;;
9657;SDS011;4867;48.112;11.622;2023-03-29T14:47:30;3.43;;;1.60;;
9657;SDS011;4867;48.112;11.622;2023-03-29T14:49:58;2.97;;;1.67;;
9657;SDS011;4867;48.112;11.622;2023-03-29T14:52:27;6.07;;;1.80;;
9657;SDS011;4867;48.112;11.622;2023-03-29T14:54:59;6.83;;;2.23;;
9657;SDS011;4867;48.112;11.622;2023-03-29T14:57:33;3.27;;;1.57;;
9657;SDS011;4867;48.112;11.622;2023-03-29T15:00:03;4.23;;;1.77;;
9657;SDS011;4867;48.112;11.622;2023-03-29T15:05:39;6.03;;;2.87;;
9657;SDS011;4867;48.112;11.622;2023-03-29T15:08:15;4.40;;;1.80;;
9657;SDS011;4867;48.112;11.622;2023-03-29T15:10:49;5.40;;;2.00;;
9657;SDS011;4867;48.112;11.622;2023-03-29T15:13:18;4.53;;;1.90;;
9657;SDS011;4867;48.112;11.622;2023-03-29T15:15:54;3.63;;;1.87;;
9657;SDS011;4867;48.112;11.622;2023-03-29T15:18:36;4.60;;;1.97;;
9657;SDS011;4867;48.112;11.622;2023-03-29T15:21:08;4.83;;;1.93;;
9657;SDS011;4867;48.112;11.622;2023-03-29T15:23:58;7.37;;;5.07;;
9657;SDS011;4867;48.112;11.622;2023-03-29T15:26:34;10.90;;;5.63;;
9657;SDS011;4867;48.112;11.622;2023-03-29T15:29:09;7.50;;;3.97;;
9657;SDS011;4867;48.112;11.622;2023-03-29T15:31:38;9.30;;;8.47;;
9657;SDS011;4867;48.112;11.622;2023-03-29T15:34:10;5.10;;;3.07;;
9657;SDS011;4867;48.112;11.622;2023-03-29T15:36:42;5.87;;;1.87;;
9657;SDS011;4867;48.112;11.622;2023-03-29T15:39:14;4.77;;;2.00;;
9657;SDS011;4867;48.112;11.622;2023-03-29T15:41:42;3.43;;;1.80;;
9657;SDS011;4867;48.112;11.622;2023-03-29T15:44:13;3.73;;;1.63;;
9657;SDS011;4867;48.112;11.622;2023-03-29T15:46:43;6.47;;;1.93;;
9657;SDS011;4867;48.112;11.622;2023-03-29T15:49:10;5.53;;;1.97;;
9657;SDS011;4867;48.112;11.622;2023-03-29T15:51:38;6.00;;;1.90;;
9657;SDS011;4867;48.112;11.622;2023-03-29T15:54:06;4.73;;;1.93;;
9657;SDS011;4867;48.112;11.622;2023-03-29T15:56:36;5.07;;;2.00;;
9657;SDS011;4867;48.112;11.622;2023-03-29T15:59:10;3.87;;;1.80;;
9657;SDS011;4867;48.112;11.622;2023-03-29T16:01:38;4.93;;;1.73;;
9657;SDS011;4867;48.112;11.622;2023-03-29T16:04:12;5.40;;;2.17;;
9657;SDS011;4867;48.112;11.622;2023-03-29T16:06:41;3.53;;;1.90;;
9657;SDS011;4867;48.112;11.622;2023-03-29T16:09:10;3.13;;;1.77;;
9657;SDS011;4867;48.112;11.622;2023-03-29T16:11:38;4.23;;;1.90;;
9657;SDS011;4867;48.112;11.622;2023-03-29T16:14:18;6.67;;;2.17;;
9657;SDS011;4867;48.112;11.622;2023-03-29T16:16:50;3.87;;;1.93;;
9657;SDS011;4867;48.112;11.622;2023-03-29T16:19:18;7.00;;;2.07;;
9657;SDS011;4867;48.112;11.622;2023-03-29T16:21:46;4.50;;;2.13;;
9657;SDS011;4867;48.112;11.622;2023-03-29T16:24:15;4.07;;;1.97;;
9657;SDS011;4867;48.112;11.622;2023-03-29T16:26:45;4.77;;;2.07;;
9657;SDS011;4867;48.112;11.622;2023-03-29T16:29:13;7.47;;;2.03;;
9657;SDS011;4867;48.112;11.622;2023-03-29T16:31:43;6.03;;;2.20;;
9657;SDS011;4867;48.112;11.622;2023-03-29T16:34:12;5.90;;;2.53;;
9657;SDS011;4867;48.112;11.622;2023-03-29T16:36:40;7.53;;;2.30;;
9657;SDS011;4867;48.112;11.622;2023-03-29T16:39:09;4.57;;;2.80;;
9657;SDS011;4867;48.112;11.622;2023-03-29T16:41:37;6.53;;;2.10;;
9657;SDS011;4867;48.112;11.622;2023-03-29T16:44:06;6.00;;;2.40;;
9657;SDS011;4867;48.112;11.622;2023-03-29T16:46:33;4.33;;;2.50;;
9657;SDS011;4867;48.112;11.622;2023-03-29T16:49:00;4.23;;;2.40;;
9657;SDS011;4867;48.112;11.622;2023-03-29T16:51:28;5.97;;;2.70;;
9657;SDS011;4867;48.112;11.622;2023-03-29T16:53:55;5.73;;;2.67;;
9657;SDS011;4867;48.112;11.622;2023-03-29T16:56:22;6.30;;;2.27;;
9657;SDS011;4867;48.112;11.622;2023-03-29T16:58:49;5.17;;;2.13;;
9657;SDS011;4867;48.112;11.622;2023-03-29T17:01:16;6.53;;;2.33;;
9657;SDS011;4867;48.112;11.622;2023-03-29T17:03:44;5.10;;;2.60;;
9657;SDS011;4867;48.112;11.622;2023-03-29T17:06:12;5.30;;;2.30;;
9657;SDS011;4867;48.112;11.622;2023-03-29T17:08:39;5.30;;;2.23;;
9657;SDS011;4867;48.112;11.622;2023-03-29T17:11:07;6.90;;;3.33;;
9657;SDS011;4867;48.112;11.622;2023-03-29T17:13:34;8.67;;;3.67;;
9657;SDS011;4867;48.112;11.622;2023-03-29T17:16:03;6.97;;;3.20;;
9657;SDS011;4867;48.112;11.622;2023-03-29T17:18:31;4.17;;;2.87;;